Archival Weather

NSFA McMurdo Sound

NSFA McMurdo Sound, Antarctica (NZCM)

Report from: Tuesday, June 6, 2023 1:55 AM UTC
Current time: Tuesday, July 16, 2024 8:34 AM UTC

Current weather – Weather history – Daily summaries
Weather forecast

Temperature-21.4°C (-6.5°F)
Wind chill-31.8°C (-25.3°F)
Dew point-30.2°C (-22.4°F)
Winds 10 kts (5.1 m/s, 11.5 mph) East (80°)
Wind gusts 16 kts (8.2 m/s, 18.4 mph)
Peak wind 27 kts (13.9 m/s, 31.1 mph) East-Southeast (110°) at 00:55
Visibility6.2 mi. (10 km)
Clouds Ceiling: Overcast 15,000 ft. (4,572 m)
Altimeter29.16 in.Hg (987 mB)
Relative humidity45 %
Density altitude-7,194 ft. (-2,193 m)
Sea-level pressure108.8 kPa (1088 mB, 32.13 in.Hg)
Remarks Fully automated report
Automated weather observing station with precipitation discriminator
Flight conditions Visual Meteorological Conditions
Raw dataNZCM 060155Z AUTO 08010G16KT 9999 OVC150 M21/M30 A2916 RMK AO2 PK WND 11027/0055 WSHFT 0106 SLP880 T12141302
An error has occurred. This application may no longer respond until reloaded. Reload 🗙